createdAt,value
2018-07-19T00:00:27.960Z,62.80
2018-07-19T00:02:55.570Z,62.81
2018-07-19T00:05:23.332Z,62.33
2018-07-19T00:07:50.112Z,62.71
2018-07-19T00:10:18.632Z,62.97
2018-07-19T00:12:45.267Z,62.34
2018-07-19T00:15:12.921Z,62.87
2018-07-19T00:17:41.854Z,62.98
2018-07-19T00:20:10.017Z,62.99
2018-07-19T00:22:36.671Z,63.03
2018-07-19T00:25:03.453Z,62.88
2018-07-19T00:27:30.129Z,62.39
2018-07-19T00:29:56.775Z,62.17
2018-07-19T00:32:24.430Z,62.93
2018-07-19T00:34:52.088Z,63.27
2018-07-19T00:37:18.849Z,62.40
2018-07-19T00:39:45.517Z,62.54
2018-07-19T00:42:13.135Z,62.34
2018-07-19T00:44:39.878Z,62.33
2018-07-19T00:47:06.541Z,62.72
2018-07-19T00:49:34.068Z,63.43
2018-07-19T00:52:00.761Z,62.44
2018-07-19T00:54:27.430Z,62.39
2018-07-19T00:56:54.921Z,63.10
2018-07-19T00:59:21.561Z,63.32
2018-07-19T01:01:49.148Z,63.12
2018-07-19T01:04:15.851Z,62.39
2018-07-19T01:06:42.500Z,62.52
2018-07-19T01:09:10.997Z,62.68
2018-07-19T01:11:37.789Z,63.37
2018-07-19T01:14:04.560Z,63.20
2018-07-19T01:16:31.201Z,63.26
2018-07-19T01:18:57.901Z,62.68
2018-07-19T01:21:25.488Z,63.24
2018-07-19T01:23:52.164Z,62.66
2018-07-19T01:26:20.225Z,62.53
2018-07-19T01:28:47.665Z,63.38
2018-07-19T01:31:14.346Z,63.34
2018-07-19T01:33:42.033Z,62.72
2018-07-19T01:36:09.760Z,62.85
2018-07-19T01:38:36.528Z,63.27
2018-07-19T01:41:09.748Z,62.61
2018-07-19T01:43:36.385Z,62.60
2018-07-19T01:46:03.250Z,63.29
2018-07-19T01:48:29.909Z,63.46
2018-07-19T01:50:56.544Z,63.54
2018-07-19T01:53:23.221Z,63.32
2018-07-19T01:55:49.873Z,62.76
2018-07-19T01:58:17.657Z,63.49
2018-07-19T02:00:44.330Z,63.61
2018-07-19T02:03:10.964Z,62.84
2018-07-19T02:05:37.605Z,62.68
2018-07-19T02:08:04.264Z,62.99
2018-07-19T02:10:30.921Z,63.52
2018-07-19T02:12:57.559Z,63.07
2018-07-19T02:15:25.211Z,62.83
2018-07-19T02:17:51.857Z,63.65
2018-07-19T02:20:18.533Z,62.85
2018-07-19T02:22:45.201Z,62.92
2018-07-19T02:25:11.846Z,63.68
2018-07-19T02:27:38.560Z,63.47
2018-07-19T02:30:06.078Z,62.82
2018-07-19T02:32:32.723Z,62.91
2018-07-19T02:34:59.380Z,63.58
2018-07-19T02:37:26.061Z,63.50
2018-07-19T02:39:52.713Z,63.49
2018-07-19T02:42:19.557Z,62.78
2018-07-19T02:44:46.212Z,62.75
2018-07-19T02:47:13.700Z,63.26
2018-07-19T02:49:40.341Z,63.25
2018-07-19T02:52:06.992Z,62.95
2018-07-19T02:54:34.453Z,62.81
2018-07-19T02:57:01.180Z,62.97
2018-07-19T02:59:27.831Z,63.52
2018-07-19T03:01:54.505Z,63.79
2018-07-19T03:04:21.144Z,62.88
2018-07-19T03:06:49.084Z,63.07
2018-07-19T03:09:15.717Z,62.90
2018-07-19T03:11:43.281Z,62.99
2018-07-19T03:14:09.964Z,63.04
2018-07-19T03:16:36.616Z,62.98
2018-07-19T03:19:03.295Z,63.00
2018-07-19T03:21:30.912Z,63.79
2018-07-19T03:23:58.433Z,63.78
2018-07-19T03:26:25.117Z,62.96
2018-07-19T03:28:51.763Z,63.94
2018-07-19T03:31:19.518Z,63.67
2018-07-19T03:33:48.532Z,63.01
2018-07-19T03:36:17.889Z,63.79
2018-07-19T03:38:45.388Z,63.12
2018-07-19T03:41:12.037Z,63.07
2018-07-19T03:43:40.147Z,63.08
2018-07-19T03:46:06.848Z,63.89
2018-07-19T03:48:33.502Z,63.66
2018-07-19T03:51:00.188Z,63.58
2018-07-19T03:53:26.836Z,62.95
2018-07-19T03:55:54.556Z,63.17
2018-07-19T03:58:21.237Z,63.71
2018-07-19T04:00:50.169Z,62.91
2018-07-19T04:03:17.472Z,62.95
2018-07-19T04:05:44.152Z,63.79
2018-07-19T04:08:10.797Z,63.76
2018-07-19T04:10:37.448Z,63.46
2018-07-19T04:13:04.124Z,63.81
2018-07-19T04:15:30.777Z,63.65
2018-07-19T04:17:58.165Z,63.16
2018-07-19T04:20:25.948Z,63.13
2018-07-19T04:22:53.240Z,63.05
2018-07-19T04:25:20.054Z,63.28
2018-07-19T04:27:47.840Z,63.04
2018-07-19T04:30:14.472Z,63.13
2018-07-19T04:32:41.545Z,63.07
2018-07-19T04:35:08.198Z,63.07
2018-07-19T04:37:35.629Z,63.18
2018-07-19T04:40:02.684Z,63.05
2018-07-19T04:42:29.368Z,63.80
2018-07-19T04:44:56.013Z,63.52
2018-07-19T04:47:22.652Z,62.95
2018-07-19T04:49:49.329Z,63.12
2018-07-19T04:52:15.978Z,63.14
2018-07-19T04:54:42.853Z,63.12
2018-07-19T04:57:10.161Z,63.52
2018-07-19T04:59:36.842Z,63.94
2018-07-19T05:02:03.553Z,63.60
2018-07-19T05:04:31.078Z,63.00
2018-07-19T05:06:58.496Z,63.67
2018-07-19T05:09:25.168Z,63.68
2018-07-19T05:11:51.820Z,62.95
2018-07-19T05:14:18.460Z,63.11
2018-07-19T05:16:45.121Z,63.13
2018-07-19T05:19:11.792Z,63.04
2018-07-19T05:21:39.676Z,63.25
2018-07-19T05:24:06.336Z,63.95
2018-07-19T05:26:33.013Z,63.27
2018-07-19T05:28:59.697Z,63.82
2018-07-19T05:31:26.364Z,62.88
2018-07-19T05:33:53.193Z,62.92
2018-07-19T05:36:19.845Z,63.82
2018-07-19T05:38:47.752Z,62.88
2018-07-19T05:41:14.427Z,63.91
2018-07-19T05:43:41.084Z,63.85
2018-07-19T05:46:07.741Z,63.48
2018-07-19T05:48:34.409Z,63.88
2018-07-19T05:51:01.085Z,63.31
2018-07-19T05:53:28.584Z,63.70
2018-07-19T05:55:55.557Z,63.40
2018-07-19T05:58:22.244Z,62.48
2018-07-19T06:00:49.355Z,62.47
2018-07-19T06:03:16.044Z,62.82
2018-07-19T06:05:42.768Z,62.87
2018-07-19T06:08:10.520Z,62.80
2018-07-19T06:10:37.186Z,62.60
2018-07-19T06:13:03.880Z,63.35
2018-07-19T06:15:31.604Z,63.87
2018-07-19T06:17:59.202Z,63.64
2018-07-19T06:20:26.817Z,63.08
2018-07-19T06:22:53.487Z,63.93
2018-07-19T06:25:20.149Z,63.76
2018-07-19T06:27:47.576Z,63.86
2018-07-19T06:30:14.238Z,62.75
2018-07-19T06:32:41.844Z,62.64
2018-07-19T06:35:09.579Z,62.22
2018-07-19T06:37:36.292Z,61.55
2018-07-19T06:40:02.969Z,61.56
2018-07-19T06:42:30.599Z,61.92
2018-07-19T06:44:58.354Z,61.18
2018-07-19T06:47:25.024Z,62.03
2018-07-19T06:49:51.678Z,61.10
2018-07-19T06:52:18.617Z,61.71
2018-07-19T06:54:45.276Z,61.56
2018-07-19T06:57:11.944Z,62.02
2018-07-19T06:59:39.480Z,61.34
2018-07-19T07:02:06.163Z,62.05
2018-07-19T07:04:32.825Z,61.37
2018-07-19T07:07:00.459Z,61.31
2018-07-19T07:09:27.956Z,61.31
2018-07-19T07:11:54.636Z,62.02
2018-07-19T07:14:21.304Z,62.08
2018-07-19T07:16:49.452Z,61.96
2018-07-19T07:19:16.205Z,62.28
2018-07-19T07:21:43.396Z,62.28
2018-07-19T07:24:10.947Z,61.43
2018-07-19T07:26:37.608Z,61.52
2018-07-19T07:29:04.267Z,61.54
2018-07-19T07:31:30.932Z,61.46
2018-07-19T07:33:57.729Z,61.44
2018-07-19T07:36:25.320Z,61.81
2018-07-19T07:38:52.897Z,62.25
2018-07-19T07:41:19.596Z,62.60
2018-07-19T07:43:46.286Z,62.90
2018-07-19T07:46:13.980Z,62.41
2018-07-19T07:48:41.500Z,62.65
2018-07-19T07:51:09.161Z,61.87
2018-07-19T07:53:35.878Z,62.14
2018-07-19T07:56:02.613Z,63.44
2018-07-19T07:58:29.324Z,62.46
2018-07-19T08:00:56.024Z,62.49
2018-07-19T08:03:22.681Z,62.54
2018-07-19T08:05:49.493Z,62.89
2018-07-19T08:08:17.612Z,61.98
2018-07-19T08:10:45.272Z,63.07
2018-07-19T08:13:11.949Z,62.50
2018-07-19T08:15:40.132Z,62.54
2018-07-19T08:18:06.793Z,62.20
2018-07-19T08:20:33.468Z,63.25
2018-07-19T08:23:00.168Z,62.68
2018-07-19T08:25:26.906Z,62.97
2018-07-19T08:27:53.856Z,62.71
2018-07-19T08:30:20.710Z,63.02
2018-07-19T08:32:48.035Z,62.38
2018-07-19T08:35:14.716Z,62.33
2018-07-19T08:37:41.430Z,63.09
2018-07-19T08:40:08.260Z,62.81
2018-07-19T08:42:37.708Z,62.44
2018-07-19T08:45:04.849Z,63.34
2018-07-19T08:47:31.501Z,62.41
2018-07-19T08:49:58.180Z,63.24
2018-07-19T08:52:25.848Z,62.42
2018-07-19T08:54:52.548Z,63.38
2018-07-19T08:57:20.230Z,62.62
2018-07-19T08:59:48.208Z,63.16
2018-07-19T09:02:15.723Z,63.28
2018-07-19T09:04:42.408Z,62.58
2018-07-19T09:07:10.193Z,62.41
2018-07-19T09:09:36.868Z,63.35
2018-07-19T09:12:04.490Z,63.04
2018-07-19T09:14:32.019Z,62.60
2018-07-19T09:16:59.589Z,62.48
2018-07-19T09:19:27.160Z,62.48
2018-07-19T09:21:54.700Z,62.61
2018-07-19T09:24:21.378Z,63.22
2018-07-19T09:26:48.945Z,62.44
2018-07-19T09:29:15.658Z,62.93
2018-07-19T09:31:42.416Z,62.18
2018-07-19T09:34:10.064Z,62.27
2018-07-19T09:36:37.850Z,62.48
2018-07-19T09:39:06.596Z,62.35
2018-07-19T09:41:33.481Z,63.06
2018-07-19T09:44:00.365Z,62.49
2018-07-19T09:46:27.273Z,63.06
2018-07-19T09:48:54.174Z,62.46
2018-07-19T09:51:21.051Z,62.96
2018-07-19T09:53:49.041Z,62.38
2018-07-19T09:56:18.479Z,62.37
2018-07-19T09:58:47.590Z,63.17
2018-07-19T10:01:20.230Z,63.12
2018-07-19T10:03:50.575Z,62.69
2018-07-19T10:06:19.548Z,63.00
2018-07-19T10:08:48.112Z,62.82
2018-07-19T10:11:16.142Z,63.42
2018-07-19T10:13:43.135Z,62.39
2018-07-19T10:16:11.331Z,63.00
2018-07-19T10:18:38.373Z,62.49
2018-07-19T10:21:05.283Z,62.64
2018-07-19T10:23:32.195Z,62.89
2018-07-19T10:25:59.080Z,62.74
2018-07-19T10:28:27.040Z,62.64
2018-07-19T10:30:53.953Z,62.58
2018-07-19T10:33:21.770Z,63.01
2018-07-19T10:35:48.925Z,62.83
2018-07-19T10:38:17.938Z,62.81
2018-07-19T10:40:44.873Z,62.75
2018-07-19T10:43:12.694Z,63.55
2018-07-19T10:45:40.637Z,62.74
2018-07-19T10:48:09.951Z,63.44
2018-07-19T10:50:37.908Z,62.86
2018-07-19T10:53:05.456Z,63.32
2018-07-19T10:55:32.388Z,62.85
2018-07-19T10:57:59.275Z,61.93
2018-07-19T11:00:26.146Z,62.42
2018-07-19T11:02:53.223Z,61.48
2018-07-19T11:05:20.249Z,62.18
2018-07-19T11:07:48.569Z,62.08
2018-07-19T11:10:15.425Z,61.94
2018-07-19T11:12:43.301Z,61.79
2018-07-19T11:15:11.989Z,61.46
2018-07-19T11:17:38.933Z,61.57
2018-07-19T11:20:05.970Z,62.46
2018-07-19T11:22:33.665Z,62.00
2018-07-19T11:25:04.140Z,62.50
2018-07-19T11:27:30.980Z,62.37
2018-07-19T11:29:57.785Z,62.02
2018-07-19T11:32:25.573Z,61.65
2018-07-19T11:34:52.393Z,62.56
2018-07-19T11:37:20.189Z,62.19
2018-07-19T11:39:48.894Z,62.63
2018-07-19T11:42:17.924Z,62.18
2018-07-19T11:44:48.461Z,62.29
2018-07-19T11:47:15.467Z,61.94
2018-07-19T11:49:43.207Z,61.83
2018-07-19T11:52:10.149Z,62.09
2018-07-19T11:54:37.045Z,62.87
2018-07-19T11:57:04.516Z,61.79
2018-07-19T11:59:31.410Z,62.89
2018-07-19T12:01:58.335Z,61.92
2018-07-19T12:04:25.236Z,61.86
2018-07-19T12:06:52.121Z,62.51
2018-07-19T12:09:19.008Z,62.11
2018-07-19T12:11:45.900Z,61.74
2018-07-19T12:14:12.800Z,62.76
2018-07-19T12:16:40.632Z,62.99
2018-07-19T12:19:07.605Z,62.37
2018-07-19T12:21:34.509Z,63.19
2018-07-19T12:24:01.613Z,63.08
2018-07-19T12:26:28.616Z,62.96
2018-07-19T12:28:55.511Z,62.94
2018-07-19T12:31:22.494Z,62.21
2018-07-19T12:33:49.422Z,62.44
2018-07-19T12:36:19.675Z,62.09
2018-07-19T12:38:47.740Z,62.62
2018-07-19T12:41:14.628Z,62.34
2018-07-19T12:43:41.514Z,62.71
2018-07-19T12:46:08.419Z,62.02
2018-07-19T12:48:35.299Z,62.62
2018-07-19T12:51:02.269Z,62.14
2018-07-19T12:53:29.168Z,61.71
2018-07-19T12:55:56.062Z,61.94
2018-07-19T12:58:22.978Z,62.04
2018-07-19T13:00:49.857Z,62.67
2018-07-19T13:03:17.316Z,62.04
2018-07-19T13:05:45.192Z,62.18
2018-07-19T13:08:13.174Z,62.20
2018-07-19T13:10:41.133Z,63.20
2018-07-19T13:13:09.884Z,62.34
2018-07-19T13:15:38.185Z,62.92
2018-07-19T13:18:05.113Z,62.82
2018-07-19T13:20:32.936Z,62.72
2018-07-19T13:23:00.636Z,62.64
2018-07-19T13:25:27.524Z,62.06
2018-07-19T13:27:55.373Z,62.73
2018-07-19T13:30:22.254Z,62.06
2018-07-19T13:32:49.965Z,61.96
2018-07-19T13:35:18.171Z,62.01
2018-07-19T13:37:45.929Z,61.76
2018-07-19T13:40:13.801Z,62.31
2018-07-19T13:42:40.707Z,62.74
2018-07-19T13:45:07.607Z,62.28
2018-07-19T13:47:34.500Z,61.79
2018-07-19T13:50:01.385Z,62.72
2018-07-19T13:52:33.929Z,62.22
2018-07-19T13:55:01.615Z,61.98
2018-07-19T13:57:28.494Z,62.00
2018-07-19T13:59:55.415Z,62.03
2018-07-19T14:02:22.304Z,62.78
2018-07-19T14:04:49.209Z,62.71
2018-07-19T14:07:16.113Z,61.92
2018-07-19T14:09:43.021Z,62.03
2018-07-19T14:12:11.018Z,62.10
2018-07-19T14:14:37.925Z,62.07
2018-07-19T14:17:04.812Z,62.87
2018-07-19T14:19:32.716Z,62.12
2018-07-19T14:21:59.612Z,62.11
2018-07-19T14:24:27.369Z,62.18
2018-07-19T14:26:55.248Z,61.98
2018-07-19T14:29:23.024Z,61.98
2018-07-19T14:31:50.829Z,62.17
2018-07-19T14:34:18.677Z,62.93
2018-07-19T14:36:45.557Z,62.34
2018-07-19T14:39:13.280Z,62.55
2018-07-19T14:41:41.224Z,62.51
2018-07-19T14:44:08.437Z,62.83
2018-07-19T14:46:35.454Z,63.02
2018-07-19T14:49:03.373Z,62.35
2018-07-19T14:51:31.213Z,62.92
2018-07-19T14:53:58.132Z,62.23
2018-07-19T14:56:25.889Z,62.65
2018-07-19T14:58:53.612Z,62.52
2018-07-19T15:01:20.692Z,61.98
2018-07-19T15:03:48.264Z,62.59
2018-07-19T15:06:19.708Z,62.53
2018-07-19T15:08:48.220Z,62.73
2018-07-19T15:11:15.940Z,62.51
2018-07-19T15:13:43.900Z,62.34
2018-07-19T15:16:11.748Z,63.25
2018-07-19T15:18:38.616Z,62.75
2018-07-19T15:21:07.181Z,62.35
2018-07-19T15:23:35.136Z,62.27
2018-07-19T15:26:02.036Z,62.72
2018-07-19T15:28:29.755Z,62.16
2018-07-19T15:30:57.432Z,62.18
2018-07-19T15:33:25.273Z,63.06
2018-07-19T15:35:52.164Z,62.87
2018-07-19T15:38:19.049Z,62.35
2018-07-19T15:40:47.745Z,62.73
2018-07-19T15:43:14.666Z,62.59
2018-07-19T15:45:41.581Z,62.25
2018-07-19T15:48:09.345Z,62.65
2018-07-19T15:50:40.873Z,62.08
2018-07-19T15:53:07.777Z,63.11
2018-07-19T15:55:34.761Z,62.41
2018-07-19T15:58:01.661Z,63.01
2018-07-19T16:00:28.689Z,62.38
2018-07-19T16:02:55.689Z,62.95
2018-07-19T16:05:23.657Z,63.03
2018-07-19T16:07:50.536Z,62.18
2018-07-19T16:10:18.132Z,62.84
2018-07-19T16:12:45.945Z,63.07
2018-07-19T16:15:12.840Z,62.78
2018-07-19T16:17:41.961Z,62.84
2018-07-19T16:20:10.753Z,62.27
2018-07-19T16:22:38.592Z,63.00
2018-07-19T16:25:05.532Z,62.97
2018-07-19T16:27:32.405Z,62.13
2018-07-19T16:30:00.123Z,62.19
2018-07-19T16:32:27.177Z,62.86
2018-07-19T16:34:54.889Z,63.06
2018-07-19T16:37:22.897Z,63.05
2018-07-19T16:39:50.804Z,62.57
2018-07-19T16:42:18.700Z,62.08
2018-07-19T16:44:45.572Z,62.95
2018-07-19T16:47:13.317Z,62.19
2018-07-19T16:49:41.201Z,62.97
2018-07-19T16:52:09.928Z,62.73
2018-07-19T16:54:37.696Z,62.30
2018-07-19T16:57:05.758Z,62.84
2018-07-19T16:59:33.484Z,62.70
2018-07-19T17:02:01.357Z,62.66
2018-07-19T17:04:28.953Z,62.35
2018-07-19T17:06:56.412Z,63.05
2018-07-19T17:09:24.180Z,63.07
2018-07-19T17:11:50.852Z,62.37
2018-07-19T17:14:18.735Z,62.37
2018-07-19T17:16:45.405Z,62.16
2018-07-19T17:19:12.072Z,63.06
2018-07-19T17:21:39.752Z,63.02
2018-07-19T17:24:06.409Z,62.40
2018-07-19T17:26:33.153Z,62.18
2018-07-19T17:29:00.133Z,62.27
2018-07-19T17:31:26.800Z,63.07
2018-07-19T17:33:53.436Z,62.12
2018-07-19T17:36:20.117Z,62.97
2018-07-19T17:38:47.847Z,62.28
2018-07-19T17:41:15.489Z,63.04
2018-07-19T17:43:43.012Z,63.03
2018-07-19T17:46:10.460Z,62.32
2018-07-19T17:48:37.160Z,62.91
2018-07-19T17:51:04.017Z,63.21
2018-07-19T17:53:30.701Z,62.29
2018-07-19T17:55:57.590Z,63.17
2018-07-19T17:58:24.262Z,63.07
2018-07-19T18:00:51.969Z,62.99
2018-07-19T18:03:18.619Z,62.48
2018-07-19T18:05:45.349Z,62.57
2018-07-19T18:08:12.157Z,62.54
2018-07-19T18:10:39.447Z,63.07
2018-07-19T18:13:06.098Z,62.59
2018-07-19T18:15:32.744Z,63.17
2018-07-19T18:17:59.529Z,62.33
2018-07-19T18:20:26.236Z,63.23
2018-07-19T18:22:52.956Z,63.10
2018-07-19T18:25:19.593Z,62.24
2018-07-19T18:27:48.452Z,62.65
2018-07-19T18:30:15.098Z,62.34
2018-07-19T18:32:41.770Z,63.12
2018-07-19T18:35:08.617Z,63.30
2018-07-19T18:37:35.309Z,62.51
2018-07-19T18:40:01.997Z,63.15
2018-07-19T18:42:28.675Z,62.46
2018-07-19T18:44:55.497Z,63.16
2018-07-19T18:47:23.142Z,62.86
2018-07-19T18:49:49.800Z,63.00
2018-07-19T18:52:16.451Z,63.28
2018-07-19T18:54:58.741Z,63.31
2018-07-19T18:57:25.446Z,63.25
2018-07-19T18:59:52.250Z,62.56
2018-07-19T19:02:18.937Z,63.34
2018-07-19T19:04:47.186Z,63.41
2018-07-19T19:07:13.879Z,62.66
2018-07-19T19:09:40.601Z,63.22
2018-07-19T19:12:07.408Z,63.92
2018-07-19T19:14:34.205Z,63.03
2018-07-19T19:17:01.849Z,62.60
2018-07-19T19:19:29.741Z,63.54
2018-07-19T19:21:56.479Z,63.36
2018-07-19T19:24:23.153Z,62.83
2018-07-19T19:26:49.846Z,62.71
2018-07-19T19:29:16.505Z,62.84
2018-07-19T19:31:43.265Z,62.85
2018-07-19T19:34:11.032Z,63.47
2018-07-19T19:36:37.752Z,63.28
2018-07-19T19:39:06.178Z,62.90
2018-07-19T19:41:33.905Z,63.41
2018-07-19T19:44:00.588Z,63.59
2018-07-19T19:46:27.301Z,63.18
2018-07-19T19:48:54.009Z,63.14
2018-07-19T19:51:20.700Z,62.87
2018-07-19T19:53:48.148Z,63.00
2018-07-19T19:56:15.062Z,63.00
2018-07-19T19:58:42.784Z,63.35
2018-07-19T20:01:10.496Z,63.60
2018-07-19T20:03:38.154Z,62.79
2018-07-19T20:06:05.761Z,63.65
2018-07-19T20:08:32.440Z,63.73
2018-07-19T20:10:59.089Z,63.16
2018-07-19T20:13:25.787Z,63.18
2018-07-19T20:15:53.328Z,63.11
2018-07-19T20:18:20.893Z,63.18
2018-07-19T20:20:48.544Z,63.27
2018-07-19T20:23:16.188Z,63.69
2018-07-19T20:25:42.831Z,63.18
2018-07-19T20:28:11.958Z,63.17
2018-07-19T20:30:41.060Z,63.58
2018-07-19T20:33:07.841Z,63.90
2018-07-19T20:35:34.504Z,63.21
2018-07-19T20:38:02.087Z,63.19
2018-07-19T20:40:28.772Z,63.50
2018-07-19T20:42:56.429Z,63.90
2018-07-19T20:45:23.238Z,63.31
2018-07-19T20:47:49.953Z,63.33
2018-07-19T20:50:17.621Z,63.93
2018-07-19T20:52:44.308Z,63.97
2018-07-19T20:55:10.963Z,64.01
2018-07-19T20:57:37.823Z,63.55
2018-07-19T21:00:04.508Z,63.48
2018-07-19T21:02:31.168Z,63.95
2018-07-19T21:04:57.990Z,63.88
2018-07-19T21:07:24.660Z,63.82
2018-07-19T21:09:52.293Z,64.02
2018-07-19T21:12:18.961Z,64.00
2018-07-19T21:14:48.015Z,63.93
2018-07-19T21:17:15.460Z,63.11
2018-07-19T21:19:42.122Z,63.80
2018-07-19T21:22:08.785Z,63.23
2018-07-19T21:24:36.340Z,63.36
2018-07-19T21:27:04.005Z,63.23
2018-07-19T21:29:38.860Z,63.25
2018-07-19T21:32:07.141Z,63.24
2018-07-19T21:34:34.230Z,63.33
2018-07-19T21:37:00.950Z,63.34
2018-07-19T21:39:27.629Z,63.03
2018-07-19T21:41:55.144Z,63.15
2018-07-19T21:44:21.824Z,64.07
2018-07-19T21:46:49.108Z,64.31
2018-07-19T21:49:15.785Z,63.59
2018-07-19T21:51:42.602Z,63.58
2018-07-19T21:54:09.320Z,64.27
2018-07-19T21:56:35.960Z,63.76
2018-07-19T21:59:02.661Z,64.24
2018-07-19T22:01:30.212Z,62.93
2018-07-19T22:03:56.885Z,61.14
2018-07-19T22:06:24.340Z,63.16
2018-07-19T22:08:52.038Z,63.87
2018-07-19T22:11:19.641Z,62.95
2018-07-19T22:13:48.669Z,63.42
2018-07-19T22:16:18.944Z,63.11
2018-07-19T22:18:45.615Z,63.51
2018-07-19T22:21:12.264Z,62.55
2018-07-19T22:23:40.882Z,63.76
2018-07-19T22:26:07.598Z,64.13
2018-07-19T22:28:35.169Z,63.94
2018-07-19T22:31:02.765Z,63.42
2018-07-19T22:33:29.424Z,62.84
2018-07-19T22:35:57.116Z,62.22
2018-07-19T22:38:24.721Z,62.95
2018-07-19T22:40:52.292Z,63.40
2018-07-19T22:43:18.960Z,63.84
2018-07-19T22:45:45.604Z,62.22
2018-07-19T22:48:12.304Z,63.09
2018-07-19T22:50:41.064Z,63.32
2018-07-19T22:53:08.745Z,63.78
2018-07-19T22:55:36.388Z,63.72
2018-07-19T22:58:03.044Z,63.36
2018-07-19T23:00:30.910Z,63.52
2018-07-19T23:02:57.677Z,63.57
2018-07-19T23:05:25.296Z,62.08
2018-07-19T23:07:52.776Z,63.60
2018-07-19T23:10:20.378Z,63.18
2018-07-19T23:12:48.418Z,62.45
2018-07-19T23:15:15.092Z,63.20
2018-07-19T23:17:41.943Z,62.96
2018-07-19T23:20:10.196Z,63.15
2018-07-19T23:22:37.793Z,62.82
2018-07-19T23:25:04.447Z,62.86
2018-07-19T23:27:32.058Z,63.24
2018-07-19T23:29:58.757Z,62.52
2018-07-19T23:32:26.456Z,62.60
2018-07-19T23:34:53.243Z,63.57
2018-07-19T23:37:25.596Z,62.93
2018-07-19T23:39:57.920Z,63.56
2018-07-19T23:42:35.616Z,63.09
2018-07-19T23:45:08.340Z,63.37
2018-07-19T23:47:37.041Z,62.56
2018-07-19T23:50:03.681Z,62.68
2018-07-19T23:52:30.382Z,62.89
2018-07-19T23:54:57.048Z,62.39
2018-07-19T23:57:23.692Z,62.11
2018-07-19T23:59:50.380Z,61.38
